Time;durP1;ratioP1;P1;durP2;ratioP2;P2;SDS_P1;SDS_P2;PMS_P1;PMS_P2;Temp;Humidity;BMP_temperature;BMP_pressure;BME280_temperature;BME280_humidity;BME280_pressure;Samples;Min_cycle;Max_cycle;Signal;HPM_P1;HPM_P2
2022/12/29 00:00:07;;;;;;;72.28;45.53;;;;;;;3.90;100.00;93962.75;5090366;28;20052;-71
2022/12/29 00:02:33;;;;;;;63.85;40.90;;;;;;;3.90;100.00;93961.03;5090147;28;20040;-71
2022/12/29 00:05:00;;;;;;;66.78;42.55;;;;;;;3.88;100.00;93956.09;5090317;28;20040;-71
2022/12/29 00:07:27;;;;;;;61.15;40.40;;;;;;;3.93;100.00;93957.38;5090119;28;20101;-71
2022/12/29 00:09:54;;;;;;;62.15;40.67;;;;;;;3.89;100.00;93956.88;5090131;28;21062;-71
2022/12/29 00:12:20;;;;;;;59.95;39.80;;;;;;;3.93;100.00;93958.16;5090268;28;20059;-71
2022/12/29 00:17:32;;;;;;;62.67;41.00;;;;;;;3.90;100.00;93965.28;5089935;28;20174;-71
2022/12/29 00:36:32;;;;;;;92.60;58.08;;;;;;;3.48;100.00;93973.41;5089749;28;20117;-71
2022/12/29 00:44:29;;;;;;;88.63;57.47;;;;;;;3.56;100.00;93974.44;5069061;28;20313;-70
2022/12/29 00:47:02;;;;;;;82.55;55.20;;;;;;;3.61;100.00;93975.59;5069029;28;20044;-71
2022/12/29 00:49:30;;;;;;;85.30;55.97;;;;;;;3.68;100.00;93982.63;5068558;28;20538;-71
2022/12/29 00:51:58;;;;;;;86.07;57.05;;;;;;;3.71;100.00;93974.72;5071408;28;20141;-71
2022/12/29 00:54:25;;;;;;;91.53;60.03;;;;;;;3.70;100.00;93966.28;5068704;28;20044;-71
2022/12/29 00:56:53;;;;;;;85.38;56.33;;;;;;;3.83;100.00;93977.78;5068557;28;20045;-71
2022/12/29 00:59:21;;;;;;;86.90;54.97;;;;;;;3.84;100.00;93976.88;5067894;28;20094;-71
2022/12/29 01:01:48;;;;;;;90.18;55.47;;;;;;;3.86;100.00;93977.50;5079608;28;20455;-71
2022/12/29 01:04:16;;;;;;;84.60;52.80;;;;;;;3.89;100.00;93974.66;5087088;28;20411;-71
2022/12/29 01:06:43;;;;;;;69.35;43.40;;;;;;;3.79;100.00;93974.75;5087357;28;20044;-72
2022/12/29 01:11:56;;;;;;;69.57;45.08;;;;;;;3.72;100.00;93982.19;5088578;28;20063;-71
2022/12/29 01:14:24;;;;;;;65.00;42.70;;;;;;;3.70;100.00;93978.97;5088448;28;20085;-71
2022/12/29 01:16:51;;;;;;;96.43;59.47;;;;;;;3.63;100.00;93972.91;5084352;28;20041;-70
2022/12/29 01:19:20;;;;;;;110.85;68.53;;;;;;;3.61;100.00;93969.69;5088141;28;20545;-71
2022/12/29 01:21:47;;;;;;;88.97;55.00;;;;;;;3.61;100.00;93967.97;5072383;28;20109;-71
2022/12/29 01:24:14;;;;;;;75.95;47.95;;;;;;;3.52;100.00;93968.84;5068371;28;20497;-71
2022/12/29 01:26:41;;;;;;;80.10;49.20;;;;;;;3.61;100.00;93965.44;5068529;28;20442;-71
2022/12/29 01:29:07;;;;;;;75.32;48.83;;;;;;;3.68;100.00;93965.66;5068232;28;20048;-71
2022/12/29 01:31:34;;;;;;;75.18;49.17;;;;;;;3.55;100.00;93955.84;5068542;28;20044;-71
2022/12/29 01:34:01;;;;;;;76.40;50.83;;;;;;;3.49;100.00;93948.84;5068677;28;20090;-71
2022/12/29 01:36:29;;;;;;;80.18;49.85;;;;;;;3.50;100.00;93952.97;5082558;28;20097;-71
2022/12/29 01:38:57;;;;;;;83.40;53.28;;;;;;;3.38;100.00;93947.31;5089150;28;20130;-71
2022/12/29 01:41:24;;;;;;;77.35;51.55;;;;;;;3.32;100.00;93941.09;5088894;28;20405;-71
2022/12/29 01:43:53;;;;;;;81.43;52.78;;;;;;;3.40;100.00;93954.78;5088979;28;20048;-71
2022/12/29 01:46:26;;;;;;;80.10;52.38;;;;;;;3.33;100.00;93947.75;5088813;28;20040;-70
2022/12/29 01:48:56;;;;;;;83.97;54.75;;;;;;;3.19;100.00;93938.91;5088542;28;20040;-71
2022/12/29 01:51:25;;;;;;;79.82;52.75;;;;;;;3.24;100.00;93940.22;5088459;28;20110;-70
2022/12/29 01:53:57;;;;;;;78.30;51.40;;;;;;;3.22;100.00;93930.22;5088281;28;20177;-70
2022/12/29 01:56:24;;;;;;;77.88;50.28;;;;;;;3.26;100.00;93941.69;5089111;28;20052;-70
2022/12/29 01:58:56;;;;;;;82.15;52.42;;;;;;;3.35;100.00;93934.91;5088693;28;20093;-70
2022/12/29 02:01:23;;;;;;;80.75;53.05;;;;;;;3.37;100.00;93935.56;5088910;28;20106;-70
2022/12/29 02:03:51;;;;;;;82.13;52.13;;;;;;;3.26;100.00;93933.25;5088468;28;20044;-70
2022/12/29 02:06:23;;;;;;;84.10;52.55;;;;;;;3.37;100.00;93927.94;5088592;28;21587;-71
2022/12/29 02:08:51;;;;;;;77.47;49.58;;;;;;;3.43;100.00;93926.56;5088726;28;20044;-71
2022/12/29 02:11:20;;;;;;;79.38;50.80;;;;;;;3.41;100.00;93926.72;5091073;28;20069;-71
2022/12/29 02:13:47;;;;;;;81.07;50.75;;;;;;;3.42;100.00;93923.22;5092635;28;20168;-70
2022/12/29 02:16:27;;;;;;;73.75;48.72;;;;;;;3.52;100.00;93925.66;5092254;28;20061;-70
2022/12/29 02:19:08;;;;;;;76.30;48.72;;;;;;;3.56;100.00;93923.66;5092405;28;20048;-70
2022/12/29 02:21:54;;;;;;;83.15;50.47;;;;;;;3.59;100.00;93926.69;5092176;28;20070;-70
2022/12/29 02:24:56;;;;;;;78.20;49.80;;;;;;;3.63;100.00;93926.38;5092275;28;20160;-70
2022/12/29 02:27:49;;;;;;;79.85;49.25;;;;;;;3.69;100.00;93929.13;5092035;28;20097;-70
2022/12/29 02:30:41;;;;;;;67.00;45.85;;;;;;;3.77;100.00;93933.47;5092287;28;20089;-70
2022/12/29 02:33:21;;;;;;;71.55;46.40;;;;;;;3.82;100.00;93941.44;5079603;28;20105;-70
2022/12/29 02:35:57;;;;;;;72.28;45.05;;;;;;;3.86;100.00;93939.38;5091835;28;20492;-70
2022/12/29 02:38:37;;;;;;;66.93;45.10;;;;;;;3.86;100.00;93935.13;5092200;28;20048;-70
2022/12/29 02:41:08;;;;;;;72.38;46.42;;;;;;;3.81;100.00;93918.72;5091690;28;20044;-70
2022/12/29 02:43:42;;;;;;;71.03;45.05;;;;;;;3.95;100.00;93932.59;5091726;28;20522;-70
2022/12/29 02:46:18;;;;;;;65.75;43.72;;;;;;;3.99;100.00;93934.69;5092051;28;20389;-70
2022/12/29 02:48:53;;;;;;;72.28;45.83;;;;;;;3.99;100.00;93931.38;5091851;28;20492;-70
2022/12/29 02:51:24;;;;;;;71.53;45.05;;;;;;;4.05;100.00;93924.84;5091653;28;20474;-70
2022/12/29 02:56:37;;;;;;;68.28;45.17;;;;;;;4.08;100.00;93929.66;5091554;28;20523;-70
2022/12/29 02:59:04;;;;;;;64.88;43.20;;;;;;;4.09;100.00;93929.50;5078509;28;20430;-70
2022/12/29 03:02:18;;;;;;;64.20;43.97;;;;;;;4.09;100.00;93926.97;5091397;28;20048;-70
2022/12/29 03:05:01;;;;;;;70.40;45.03;;;;;;;4.07;100.00;93915.34;5091335;28;20044;-70
2022/12/29 03:07:39;;;;;;;70.28;45.42;;;;;;;3.92;100.00;93900.66;5091693;28;20338;-70
2022/12/29 03:10:16;;;;;;;75.43;46.10;;;;;;;3.99;100.00;93908.47;5091373;28;20443;-70
2022/12/29 03:18:26;;;;;;;72.80;47.40;;;;;;;3.88;100.00;93906.97;5091033;28;20169;-70
2022/12/29 03:20:58;;;;;;;66.60;42.45;;;;;;;3.82;100.00;93908.41;5091118;28;20109;-71
2022/12/29 03:23:26;;;;;;;68.05;44.25;;;;;;;3.79;100.00;93906.16;5090323;28;20093;-70
2022/12/29 03:25:57;;;;;;;64.55;42.38;;;;;;;3.74;100.00;93915.97;5090666;28;20557;-70
2022/12/29 03:28:27;;;;;;;63.58;40.97;;;;;;;3.67;100.00;93914.97;5091197;28;20404;-69
2022/12/29 03:30:54;;;;;;;65.00;41.15;;;;;;;3.61;100.00;93908.72;5090958;28;20044;-70
2022/12/29 03:33:26;;;;;;;63.97;41.53;;;;;;;3.53;100.00;93912.03;5091042;28;20060;-69
2022/12/29 03:35:58;;;;;;;66.85;42.90;;;;;;;3.47;100.00;93910.88;5090781;28;20047;-69
2022/12/29 03:38:30;;;;;;;68.10;43.55;;;;;;;3.46;100.00;93916.09;5090933;28;20044;-69
2022/12/29 03:41:00;;;;;;;62.42;42.15;;;;;;;3.43;100.00;93911.31;5091061;28;20044;-69
2022/12/29 03:43:28;;;;;;;65.45;43.47;;;;;;;3.42;100.00;93910.53;5090862;28;20052;-69
2022/12/29 03:45:55;;;;;;;68.55;44.97;;;;;;;3.43;100.00;93911.31;5090427;28;20048;-70
2022/12/29 03:48:23;;;;;;;69.80;47.50;;;;;;;3.40;100.00;93909.88;5090507;28;20048;-70
2022/12/29 03:50:50;;;;;;;72.57;46.47;;;;;;;3.28;100.00;93909.31;5090461;28;20048;-70
2022/12/29 03:53:16;;;;;;;70.30;47.20;;;;;;;3.26;100.00;93911.22;5090400;28;20089;-69
2022/12/29 03:55:43;;;;;;;88.03;54.88;;;;;;;3.19;100.00;93912.72;5090105;28;20048;-70
2022/12/29 03:58:10;;;;;;;84.32;54.35;;;;;;;3.17;100.00;93914.63;5090242;28;20097;-70
2022/12/29 04:00:36;;;;;;;80.63;50.83;;;;;;;3.25;100.00;93919.78;5090126;28;20071;-70
2022/12/29 04:03:03;;;;;;;79.18;49.72;;;;;;;3.28;100.00;93914.38;5090478;28;20044;-70
2022/12/29 04:05:32;;;;;;;61.10;43.22;;;;;;;3.36;100.00;93913.66;5090143;28;20447;-70
2022/12/29 04:07:58;;;;;;;70.30;44.67;;;;;;;3.40;100.00;93920.03;5090496;28;20063;-70
2022/12/29 04:10:25;;;;;;;67.22;44.10;;;;;;;3.46;100.00;93918.63;5090069;28;20093;-70
2022/12/29 04:12:52;;;;;;;68.35;46.10;;;;;;;3.39;100.00;93915.91;5090069;28;20063;-69
2022/12/29 04:15:18;;;;;;;77.63;47.55;;;;;;;3.46;100.00;93926.25;5090263;28;20048;-69
2022/12/29 04:17:45;;;;;;;76.22;50.50;;;;;;;3.44;100.00;93931.50;5090098;28;20056;-70
2022/12/29 04:23:02;;;;;;;85.22;51.67;;;;;;;3.32;100.00;93909.81;5089732;28;20558;-69
2022/12/29 04:25:29;;;;;;;99.05;61.30;;;;;;;3.39;100.00;93931.16;5090020;28;20044;-69
2022/12/29 04:27:55;;;;;;;87.00;53.88;;;;;;;3.46;100.00;93929.59;5089993;28;20047;-69
2022/12/29 04:30:22;;;;;;;80.55;53.75;;;;;;;3.49;100.00;93933.59;5089738;28;20504;-69
2022/12/29 04:32:49;;;;;;;83.32;53.28;;;;;;;3.49;100.00;93933.59;5089720;28;20122;-69
2022/12/29 04:35:16;;;;;;;75.97;48.38;;;;;;;3.38;100.00;93918.59;5088850;28;20044;-70
2022/12/29 04:37:42;;;;;;;75.95;49.78;;;;;;;3.53;100.00;93937.44;5089428;28;20086;-70
2022/12/29 04:40:12;;;;;;;70.88;48.03;;;;;;;3.55;100.00;93939.81;5089873;28;20454;-70
2022/12/29 04:42:39;;;;;;;70.32;48.88;;;;;;;3.48;100.00;93937.88;5089793;28;20044;-70
2022/12/29 04:45:07;;;;;;;74.57;49.05;;;;;;;3.54;100.00;93941.56;5089757;28;20044;-70
2022/12/29 04:47:33;;;;;;;72.45;47.67;;;;;;;3.47;100.00;93945.63;5089430;28;20092;-70
2022/12/29 04:50:00;;;;;;;68.80;46.95;;;;;;;3.47;100.00;93945.63;5089696;28;20048;-70
2022/12/29 04:52:27;;;;;;;67.47;45.80;;;;;;;3.40;100.00;93955.59;5088971;28;20094;-70
2022/12/29 04:54:53;;;;;;;70.97;47.58;;;;;;;3.20;100.00;93949.88;5089200;28;20552;-70
2022/12/29 04:57:21;;;;;;;68.55;46.08;;;;;;;3.17;100.00;93947.63;5089623;28;20048;-70
2022/12/29 04:59:48;;;;;;;69.35;44.85;;;;;;;3.18;100.00;93950.00;5089827;28;20052;-70
2022/12/29 05:02:16;;;;;;;60.60;42.90;;;;;;;2.93;100.00;93952.31;5089615;28;20089;-70
2022/12/29 05:04:43;;;;;;;60.40;40.75;;;;;;;2.93;100.00;93954.84;5089153;28;20495;-70
2022/12/29 05:07:10;;;;;;;62.58;41.58;;;;;;;2.87;100.00;93936.88;5089396;28;20444;-70
2022/12/29 05:09:37;;;;;;;64.60;43.85;;;;;;;3.02;100.00;93950.66;5089371;28;20052;-70
2022/12/29 05:12:04;;;;;;;69.57;45.28;;;;;;;3.12;100.00;93947.25;5089069;28;20044;-70
2022/12/29 05:14:32;;;;;;;67.10;45.10;;;;;;;3.18;100.00;93952.56;5089044;28;20044;-70
2022/12/29 05:20:21;;;;;;;64.22;43.75;;;;;;;3.23;100.00;93949.56;5076376;28;20116;-70
2022/12/29 05:22:48;;;;;;;65.03;46.08;;;;;;;3.30;100.00;93958.22;5088051;28;20059;-70
2022/12/29 05:25:14;;;;;;;75.38;50.80;;;;;;;3.24;100.00;93952.91;5089257;28;20048;-70
2022/12/29 05:27:41;;;;;;;72.45;48.03;;;;;;;3.18;100.00;93942.41;5089058;28;20094;-70
2022/12/29 05:30:10;;;;;;;70.88;47.65;;;;;;;3.33;100.00;93957.09;5088815;28;20044;-70
2022/12/29 05:32:37;;;;;;;74.25;50.33;;;;;;;3.14;100.00;93951.25;5088979;28;20093;-70
2022/12/29 05:35:04;;;;;;;68.78;46.67;;;;;;;3.23;100.00;93958.94;5089129;28;20035;-70
2022/12/29 05:37:31;;;;;;;56.38;40.50;;;;;;;3.02;100.00;93960.03;5088752;28;20048;-70
2022/12/29 05:39:59;;;;;;;58.80;39.75;;;;;;;2.75;100.00;93956.59;5088686;28;20059;-70
2022/12/29 05:42:25;;;;;;;60.17;39.60;;;;;;;2.49;100.00;93945.38;5088864;28;20040;-70
2022/12/29 05:44:53;;;;;;;61.17;42.53;;;;;;;2.61;100.00;93956.13;5088781;28;20585;-70
2022/12/29 05:47:21;;;;;;;66.78;45.25;;;;;;;2.63;100.00;93954.25;5092984;28;20047;-70
2022/12/29 05:49:48;;;;;;;68.97;46.65;;;;;;;2.49;100.00;93952.16;5092642;28;20103;-70
2022/12/29 05:52:43;;;;;;;65.68;44.58;;;;;;;2.39;100.00;93960.63;5092535;28;20043;-70
2022/12/29 05:55:10;;;;;;;65.93;43.65;;;;;;;2.37;100.00;93951.56;5092499;28;20055;-70
2022/12/29 05:57:37;;;;;;;61.13;41.95;;;;;;;2.26;100.00;93960.97;5092844;28;20048;-70
2022/12/29 06:00:04;;;;;;;57.22;40.42;;;;;;;2.38;100.00;93958.25;5092716;28;20040;-70
2022/12/29 06:02:33;;;;;;;96.85;54.55;;;;;;;2.50;100.00;93958.88;5092305;28;20051;-71
2022/12/29 06:04:59;;;;;;;77.07;54.83;;;;;;;2.60;100.00;93963.88;5092503;28;20040;-70
2022/12/29 06:07:26;;;;;;;73.13;50.00;;;;;;;2.70;100.00;93963.81;5092349;28;20052;-70
2022/12/29 06:09:53;;;;;;;64.97;44.30;;;;;;;2.70;100.00;93966.34;5092197;28;20101;-70
2022/12/29 06:12:19;;;;;;;70.95;46.45;;;;;;;2.84;100.00;93968.41;5092513;28;20043;-70
2022/12/29 06:14:46;;;;;;;72.20;49.95;;;;;;;2.84;100.00;93973.50;5092125;28;20561;-71
2022/12/29 06:17:13;;;;;;;65.65;46.00;;;;;;;2.97;100.00;93973.16;5091981;28;20048;-70
2022/12/29 06:19:41;;;;;;;68.47;46.53;;;;;;;3.09;100.00;93975.47;5091933;28;20048;-70
2022/12/29 06:22:08;;;;;;;68.82;47.28;;;;;;;3.18;100.00;93975.41;5092424;28;20109;-71
2022/12/29 06:24:35;;;;;;;71.70;50.10;;;;;;;3.15;100.00;93973.16;5092268;28;20056;-70
2022/12/29 06:27:01;;;;;;;70.72;48.92;;;;;;;3.27;100.00;93976.28;5091943;28;20047;-71
2022/12/29 06:29:28;;;;;;;75.13;53.25;;;;;;;3.38;100.00;93982.06;5092092;28;21059;-71
2022/12/29 06:31:57;;;;;;;78.47;55.40;;;;;;;3.37;100.00;93981.28;5091838;28;20040;-71
2022/12/29 06:34:24;;;;;;;83.18;62.95;;;;;;;3.46;100.00;93980.41;5091993;28;20048;-71
2022/12/29 06:36:52;;;;;;;92.50;69.65;;;;;;;3.14;100.00;93984.25;5091910;28;20048;-71
2022/12/29 06:39:19;;;;;;;95.35;70.82;;;;;;;3.26;100.00;93982.31;5091718;28;20090;-71
2022/12/29 06:41:46;;;;;;;94.03;70.40;;;;;;;3.10;100.00;93990.53;5091699;28;20052;-70
2022/12/29 06:44:13;;;;;;;95.00;72.28;;;;;;;3.19;100.00;93996.50;5091350;28;20058;-70
2022/12/29 06:46:39;;;;;;;104.47;71.05;;;;;;;3.16;100.00;93989.19;5091934;28;20051;-71
2022/12/29 06:49:06;;;;;;;92.70;65.63;;;;;;;2.86;100.00;93981.75;5091817;28;20044;-71
2022/12/29 06:51:33;;;;;;;97.72;65.75;;;;;;;2.96;100.00;93986.75;5091558;28;20055;-71
2022/12/29 06:54:01;;;;;;;90.60;60.75;;;;;;;2.98;100.00;93981.56;5091514;28;20044;-71
2022/12/29 06:56:28;;;;;;;86.97;60.80;;;;;;;2.97;100.00;93996.00;5091206;28;20052;-71
2022/12/29 06:58:55;;;;;;;76.03;53.78;;;;;;;2.92;100.00;93978.63;5091401;28;20036;-70
2022/12/29 07:01:21;;;;;;;80.63;54.45;;;;;;;3.12;100.00;93995.47;5091788;28;20094;-71
2022/12/29 07:03:48;;;;;;;77.60;53.10;;;;;;;3.23;100.00;93990.19;5091108;28;20044;-71
2022/12/29 07:06:15;;;;;;;74.88;53.22;;;;;;;3.03;100.00;93987.00;5091217;28;20565;-70
2022/12/29 07:08:42;;;;;;;188.35;122.78;;;;;;;3.28;100.00;93995.63;5091133;28;20450;-70
2022/12/29 07:11:10;;;;;;;90.22;60.63;;;;;;;3.32;100.00;93999.50;5091447;28;20048;-71
2022/12/29 07:13:37;;;;;;;70.57;50.22;;;;;;;3.45;100.00;93998.31;5091340;28;20052;-71
2022/12/29 07:16:07;;;;;;;65.80;47.00;;;;;;;3.27;100.00;93998.31;5091201;28;20044;-71
2022/12/29 07:18:34;;;;;;;68.53;49.45;;;;;;;3.25;100.00;93987.50;5090783;28;20058;-71
2022/12/29 07:21:00;;;;;;;70.13;50.28;;;;;;;3.23;100.00;94004.66;5091070;28;20048;-71
2022/12/29 07:23:27;;;;;;;65.95;48.78;;;;;;;3.20;100.00;93995.56;5091068;28;20048;-70
2022/12/29 07:26:00;;;;;;;66.45;48.92;;;;;;;3.36;100.00;94001.72;5090386;28;20044;-70
2022/12/29 07:28:28;;;;;;;67.93;47.40;;;;;;;3.38;100.00;93999.84;5091189;28;20044;-70
2022/12/29 07:30:55;;;;;;;65.20;44.67;;;;;;;3.46;100.00;94007.53;5090763;28;20829;-70
2022/12/29 07:33:22;;;;;;;65.75;45.80;;;;;;;3.57;100.00;94002.22;5090755;28;20052;-70
2022/12/29 07:35:49;;;;;;;68.07;47.33;;;;;;;3.69;100.00;94002.81;5090890;28;20044;-70
2022/12/29 07:38:16;;;;;;;79.63;51.00;;;;;;;3.78;100.00;94010.47;5091117;28;20094;-70
2022/12/29 07:40:42;;;;;;;79.05;54.88;;;;;;;3.72;100.00;94007.59;5090515;28;20059;-70
2022/12/29 07:43:09;;;;;;;83.68;55.97;;;;;;;3.84;100.00;94013.22;5090713;28;20060;-70
2022/12/29 07:45:37;;;;;;;76.43;51.38;;;;;;;3.88;100.00;94001.84;5090857;28;20044;-70
2022/12/29 07:48:07;;;;;;;77.28;51.30;;;;;;;3.98;100.00;94016.19;5090795;28;20120;-70
2022/12/29 07:50:34;;;;;;;86.97;53.38;;;;;;;4.02;100.00;94012.41;5090237;28;20479;-70
2022/12/29 07:53:01;;;;;;;82.05;58.15;;;;;;;4.16;100.00;94018.69;5090663;28;20040;-70
2022/12/29 07:55:28;;;;;;;78.60;53.95;;;;;;;4.25;100.00;94020.34;5090290;28;20052;-70
2022/12/29 07:57:54;;;;;;;80.07;55.08;;;;;;;3.87;100.00;94001.97;5090151;28;20089;-70
2022/12/29 08:00:21;;;;;;;72.25;47.65;;;;;;;3.81;100.00;94013.53;5090442;28;20478;-70
2022/12/29 08:02:50;;;;;;;65.47;45.13;;;;;;;3.96;100.00;94016.34;5090520;28;20047;-70
2022/12/29 08:05:17;;;;;;;63.97;44.47;;;;;;;3.86;100.00;94015.63;5090324;28;20554;-70
2022/12/29 08:07:44;;;;;;;65.00;45.33;;;;;;;3.90;100.00;94018.69;5090341;28;20093;-71
2022/12/29 08:10:12;;;;;;;63.78;44.40;;;;;;;4.17;100.00;94016.94;5090180;28;20052;-70
2022/12/29 08:12:39;;;;;;;61.58;42.78;;;;;;;4.28;100.00;94022.59;5074943;28;20044;-70
2022/12/29 08:15:08;;;;;;;57.20;41.08;;;;;;;4.42;100.00;94025.50;5084902;28;20048;-71
2022/12/29 08:17:35;;;;;;;62.53;41.40;;;;;;;4.54;100.00;94024.28;5088099;28;20044;-71
2022/12/29 08:20:04;;;;;;;59.63;41.40;;;;;;;4.65;100.00;94028.34;5090295;28;20081;-71
2022/12/29 08:22:31;;;;;;;54.88;38.08;;;;;;;4.85;100.00;94029.84;5089395;28;20134;-71
2022/12/29 08:24:58;;;;;;;53.53;37.88;;;;;;;4.98;100.00;94030.19;5090094;28;20044;-71
2022/12/29 08:27:24;;;;;;;54.85;37.38;;;;;;;4.89;100.00;94028.56;5089687;28;20052;-71
2022/12/29 08:29:51;;;;;;;59.95;37.50;;;;;;;4.81;100.00;94029.31;5089580;28;20040;-71
2022/12/29 08:32:18;;;;;;;55.63;36.92;;;;;;;4.72;100.00;94032.81;5079896;28;20048;-71
2022/12/29 08:34:45;;;;;;;52.35;36.97;;;;;;;4.88;100.00;94032.06;5071089;28;20098;-70
2022/12/29 08:37:13;;;;;;;54.33;38.63;;;;;;;5.03;100.00;94033.06;5068635;28;20044;-69
2022/12/29 08:39:40;;;;;;;63.97;42.28;;;;;;;5.11;100.00;94032.31;5069138;28;20092;-70
2022/12/29 08:42:06;;;;;;;63.55;45.30;;;;;;;5.14;100.00;94029.44;5068878;28;20098;-70
2022/12/29 08:44:33;;;;;;;68.78;46.55;;;;;;;5.32;100.00;94024.22;5068543;28;20098;-71
2022/12/29 08:47:00;;;;;;;63.35;44.83;;;;;;;5.52;100.00;94028.22;5069196;28;20044;-70
2022/12/29 08:49:26;;;;;;;58.08;42.20;;;;;;;5.59;100.00;94016.44;5074702;28;20052;-70
2022/12/29 08:51:53;;;;;;;50.95;34.08;;;;;;;5.68;100.00;94029.97;5069314;28;20093;-70
2022/12/29 08:54:21;;;;;;;64.25;39.45;;;;;;;5.83;100.00;94023.31;5081692;28;20098;-70
2022/12/29 08:56:48;;;;;;;58.47;38.58;;;;;;;6.07;100.00;94019.16;5089441;28;20044;-70
2022/12/29 08:59:15;;;;;;;60.47;40.38;;;;;;;6.28;100.00;94021.22;5089457;28;20545;-70
2022/12/29 09:01:41;;;;;;;59.55;40.63;;;;;;;6.50;100.00;94021.50;5089469;28;20093;-70
2022/12/29 09:04:08;;;;;;;55.83;36.97;;;;;;;6.66;100.00;94020.63;5089238;28;20044;-70
2022/12/29 09:06:35;;;;;;;50.58;34.30;;;;;;;6.46;100.00;94027.88;5082618;28;20467;-71
2022/12/29 09:09:02;;;;;;;52.28;34.42;;;;;;;6.21;100.00;94033.00;5068873;28;20504;-70
2022/12/29 09:11:30;;;;;;;53.38;32.85;;;;;;;6.03;100.00;94028.13;5089319;28;20044;-70
2022/12/29 09:13:57;;;;;;;46.53;32.50;;;;;;;6.10;100.00;94028.25;5088986;28;20093;-70
2022/12/29 09:16:24;;;;;;;50.33;32.17;;;;;;;6.09;100.00;94031.75;5089384;28;20048;-70
2022/12/29 09:18:51;;;;;;;54.25;33.28;;;;;;;6.25;100.00;94023.31;5089099;28;20465;-70
2022/12/29 09:21:18;;;;;;;51.70;34.03;;;;;;;6.39;100.00;94006.53;5088865;28;20044;-70
2022/12/29 09:23:44;;;;;;;45.90;32.38;;;;;;;6.15;100.00;94010.69;5088965;28;20089;-70
2022/12/29 09:26:11;;;;;;;44.92;32.05;;;;;;;5.88;100.00;93982.03;5089232;28;20458;-70
2022/12/29 09:28:40;;;;;;;49.53;32.70;;;;;;;6.28;100.00;94018.66;5089157;28;20040;-70
2022/12/29 09:31:07;;;;;;;51.42;34.35;;;;;;;6.29;100.00;94006.69;5089280;28;20044;-71
2022/12/29 09:33:34;;;;;;;44.03;30.42;;;;;;;6.23;100.00;93994.59;5088513;28;20492;-71
2022/12/29 09:36:01;;;;;;;48.53;33.08;;;;;;;6.44;100.00;94008.59;5089195;28;20490;-71
2022/12/29 09:38:28;;;;;;;56.03;35.00;;;;;;;6.68;100.00;93998.28;5088794;28;20040;-70
2022/12/29 09:40:57;;;;;;;49.47;33.72;;;;;;;6.89;100.00;94003.81;5089345;28;20097;-70
2022/12/29 09:43:41;;;;;;;47.30;30.67;;;;;;;7.15;100.00;93992.47;5088782;28;20094;-70
2022/12/29 09:46:19;;;;;;;52.75;30.20;;;;;;;7.25;100.00;93959.03;5088255;28;20047;-70
2022/12/29 09:48:51;;;;;;;47.67;29.65;;;;;;;7.65;100.00;93981.91;5076054;28;20412;-70
2022/12/29 09:51:24;;;;;;;50.90;30.77;;;;;;;7.84;100.00;93998.56;5088903;28;20044;-70
2022/12/29 09:53:56;;;;;;;40.67;26.42;;;;;;;8.00;100.00;93995.84;5088611;28;20131;-70
2022/12/29 09:56:26;;;;;;;43.13;26.60;;;;;;;8.07;100.00;93990.03;5088425;28;20056;-70
2022/12/29 09:58:59;;;;;;;38.88;23.23;;;;;;;8.28;100.00;93995.28;5068199;28;20045;-70
2022/12/29 10:01:33;;;;;;;34.28;22.85;;;;;;;8.38;100.00;94001.91;5085782;28;20040;-71
2022/12/29 10:04:04;;;;;;;36.42;22.13;;;;;;;8.19;100.00;93990.41;5075765;28;20060;-71
2022/12/29 10:06:42;;;;;;;38.88;25.23;;;;;;;8.21;100.00;93988.47;5086280;28;20051;-71
2022/12/29 10:09:19;;;;;;;35.97;22.45;;;;;;;8.48;100.00;93988.84;5077863;28;20059;-71
2022/12/29 10:12:04;;;;;;;40.35;24.75;;;;;;;8.60;100.00;93990.00;5084156;28;20054;-71
2022/12/29 10:14:46;;;;;;;36.17;25.25;;;;;;;8.60;100.00;93984.09;5088218;28;20051;-70
2022/12/29 10:17:30;;;;;;;39.45;24.38;;;;;;;8.82;100.00;93982.38;5086258;28;20040;-71
2022/12/29 10:20:14;;;;;;;38.05;24.65;;;;;;;8.82;100.00;93972.13;5075457;28;20055;-71
2022/12/29 10:22:55;;;;;;;42.00;27.67;;;;;;;8.89;100.00;93978.13;5089583;28;20100;-71
2022/12/29 10:25:26;;;;;;;42.10;27.33;;;;;;;8.85;100.00;93964.09;5089987;28;20491;-71
2022/12/29 10:27:57;;;;;;;36.58;23.80;;;;;;;8.81;100.00;93958.53;5089778;28;20052;-71
2022/12/29 10:30:24;;;;;;;42.97;25.17;;;;;;;9.01;100.00;93963.09;5089293;28;20062;-70
2022/12/29 10:32:56;;;;;;;36.50;24.25;;;;;;;9.06;100.00;93965.91;5090064;28;20040;-70
2022/12/29 10:35:25;;;;;;;34.30;23.90;;;;;;;8.87;100.00;93964.69;5091962;28;20047;-70
2022/12/29 10:38:00;;;;;;;39.00;23.90;;;;;;;9.09;100.00;93955.28;5091949;28;20044;-71
2022/12/29 10:40:32;;;;;;;86.28;39.97;;;;;;;9.37;100.00;93948.66;5091257;28;20044;-70
2022/12/29 10:43:00;;;;;;;44.47;25.25;;;;;;;9.53;100.00;93945.03;5081225;28;20105;-71
2022/12/29 10:45:32;;;;;;;30.02;18.98;;;;;;;9.68;100.00;93955.19;5087056;28;20094;-71
2022/12/29 10:48:04;;;;;;;74.47;33.47;;;;;;;9.84;100.00;93953.34;5092182;28;20040;-71
2022/12/29 10:50:30;;;;;;;31.58;18.48;;;;;;;9.91;100.00;93945.72;5091839;28;20052;-71
2022/12/29 10:53:01;;;;;;;323.13;124.85;;;;;;;10.05;100.00;93952.53;5091825;28;20036;-71
2022/12/29 10:55:32;;;;;;;100.13;43.90;;;;;;;10.07;100.00;93936.91;5091761;28;20102;-70
2022/12/29 10:58:05;;;;;;;82.28;38.53;;;;;;;10.24;100.00;93943.34;5091938;28;20041;-71
2022/12/29 11:00:33;;;;;;;161.93;71.60;;;;;;;10.36;100.00;93937.66;5091283;28;20563;-71
2022/12/29 11:03:36;;;;;;;95.72;44.55;;;;;;;10.46;100.00;93934.81;5091717;28;20101;-71
2022/12/29 11:06:09;;;;;;;172.88;73.78;;;;;;;10.50;100.00;93929.09;5082781;28;20393;-71
2022/12/29 11:08:38;;;;;;;153.35;68.72;;;;;;;10.53;100.00;93925.34;5091263;28;20094;-71
2022/12/29 11:11:08;;;;;;;50.35;26.45;;;;;;;10.45;100.00;93925.53;5091760;28;20044;-71
2022/12/29 11:13:36;;;;;;;37.95;21.02;;;;;;;10.46;100.00;93927.88;5091343;28;20043;-71
2022/12/29 11:16:03;;;;;;;28.42;16.40;;;;;;;10.47;100.00;93926.13;5091483;28;20078;-70
2022/12/29 11:18:37;;;;;;;40.58;22.25;;;;;;;10.56;100.00;93923.19;5091536;28;20048;-70
2022/12/29 11:21:06;;;;;;;100.43;50.42;;;;;;;10.64;100.00;93924.78;5091015;28;20500;-70
2022/12/29 11:23:34;;;;;;;37.17;22.35;;;;;;;10.57;100.00;93906.00;5091076;28;20500;-71
2022/12/29 11:26:15;;;;;;;53.85;31.25;;;;;;;10.67;100.00;93918.47;5091091;28;20040;-70
2022/12/29 11:28:44;;;;;;;41.20;23.95;;;;;;;10.58;100.00;93920.44;5091245;28;20040;-71
2022/12/29 11:31:11;;;;;;;23.98;15.95;;;;;;;10.53;100.00;93915.88;5091133;28;20052;-70
2022/12/29 11:33:40;;;;;;;28.98;17.17;;;;;;;10.52;100.00;93916.84;5091166;28;20048;-70
2022/12/29 11:36:11;;;;;;;28.30;19.15;;;;;;;10.41;100.00;93915.59;5091040;28;20055;-71
2022/12/29 11:38:40;;;;;;;14.52;9.90;;;;;;;10.39;100.00;93909.06;5091257;28;20044;-70
2022/12/29 11:41:12;;;;;;;13.35;9.98;;;;;;;10.43;100.00;93908.50;5090666;28;20044;-70
2022/12/29 11:43:42;;;;;;;13.10;9.20;;;;;;;10.49;100.00;93914.66;5090257;28;20040;-71
2022/12/29 11:46:17;;;;;;;15.18;9.93;;;;;;;10.45;100.00;93907.53;5077712;28;20611;-70
2022/12/29 11:48:48;;;;;;;14.65;10.18;;;;;;;10.46;100.00;93907.31;5090741;28;20073;-71
2022/12/29 11:51:23;;;;;;;12.70;9.25;;;;;;;10.46;100.00;93904.75;5090600;28;20130;-71
2022/12/29 11:53:52;;;;;;;19.17;13.15;;;;;;;10.49;100.00;93901.00;5090434;28;20048;-71
2022/12/29 11:56:23;;;;;;;16.27;10.60;;;;;;;10.50;100.00;93900.84;5090255;28;20504;-71
2022/12/29 11:58:53;;;;;;;15.23;8.50;;;;;;;10.52;100.00;93903.22;5090366;28;20087;-71
2022/12/29 12:01:27;;;;;;;15.60;9.32;;;;;;;10.59;100.00;93893.75;5090687;28;20055;-71
2022/12/29 12:04:01;;;;;;;18.58;10.57;;;;;;;10.60;100.00;93895.31;5076765;28;20504;-71
2022/12/29 12:06:30;;;;;;;18.00;11.60;;;;;;;10.59;100.00;93901.44;5090480;28;20048;-71
2022/12/29 12:09:02;;;;;;;15.57;9.90;;;;;;;10.58;100.00;93884.47;5090322;28;20044;-71